sensor_id;sensor_type;location;lat;lon;timestamp;temperature;humidity
32095;DHT22;18608;53.688;10.748;2023-04-06T00:01:07;1.60;99.90
32095;DHT22;18608;53.688;10.748;2023-04-06T00:03:33;1.60;99.90
32095;DHT22;18608;53.688;10.748;2023-04-06T00:05:58;1.60;99.90
32095;DHT22;18608;53.688;10.748;2023-04-06T00:08:26;1.50;99.90
32095;DHT22;18608;53.688;10.748;2023-04-06T00:10:52;1.50;99.90
32095;DHT22;18608;53.688;10.748;2023-04-06T00:13:17;1.50;99.90
32095;DHT22;18608;53.688;10.748;2023-04-06T00:15:43;1.40;99.90
32095;DHT22;18608;53.688;10.748;2023-04-06T00:18:09;1.40;99.90
32095;DHT22;18608;53.688;10.748;2023-04-06T00:20:35;1.50;99.90
32095;DHT22;18608;53.688;10.748;2023-04-06T00:23:00;1.50;99.90
32095;DHT22;18608;53.688;10.748;2023-04-06T00:25:26;1.60;99.90
32095;DHT22;18608;53.688;10.748;2023-04-06T00:27:52;1.50;99.90
32095;DHT22;18608;53.688;10.748;2023-04-06T00:30:18;1.60;99.90
32095;DHT22;18608;53.688;10.748;2023-04-06T00:32:44;1.60;99.90
32095;DHT22;18608;53.688;10.748;2023-04-06T00:35:09;1.70;99.90
32095;DHT22;18608;53.688;10.748;2023-04-06T00:37:36;1.80;99.90
32095;DHT22;18608;53.688;10.748;2023-04-06T00:40:02;1.80;99.90
32095;DHT22;18608;53.688;10.748;2023-04-06T00:42:28;1.80;99.90
32095;DHT22;18608;53.688;10.748;2023-04-06T00:44:56;1.80;99.90
32095;DHT22;18608;53.688;10.748;2023-04-06T00:47:23;2.00;99.90
32095;DHT22;18608;53.688;10.748;2023-04-06T00:49:50;2.00;99.90
32095;DHT22;18608;53.688;10.748;2023-04-06T00:52:16;2.00;99.90
32095;DHT22;18608;53.688;10.748;2023-04-06T00:54:42;1.90;99.90
32095;DHT22;18608;53.688;10.748;2023-04-06T00:57:08;1.90;99.90
32095;DHT22;18608;53.688;10.748;2023-04-06T00:59:33;1.80;99.90
32095;DHT22;18608;53.688;10.748;2023-04-06T01:01:59;1.80;99.90
32095;DHT22;18608;53.688;10.748;2023-04-06T01:04:26;1.70;99.90
32095;DHT22;18608;53.688;10.748;2023-04-06T01:06:52;1.60;99.90
32095;DHT22;18608;53.688;10.748;2023-04-06T01:09:18;1.40;99.90
32095;DHT22;18608;53.688;10.748;2023-04-06T01:11:44;1.40;99.90
32095;DHT22;18608;53.688;10.748;2023-04-06T01:14:09;1.40;99.90
32095;DHT22;18608;53.688;10.748;2023-04-06T01:16:35;1.20;99.90
32095;DHT22;18608;53.688;10.748;2023-04-06T01:19:07;1.20;99.90
32095;DHT22;18608;53.688;10.748;2023-04-06T01:21:33;1.20;99.90
32095;DHT22;18608;53.688;10.748;2023-04-06T01:23:58;1.30;99.90
32095;DHT22;18608;53.688;10.748;2023-04-06T01:26:24;1.30;99.90
32095;DHT22;18608;53.688;10.748;2023-04-06T01:28:50;1.40;99.90
32095;DHT22;18608;53.688;10.748;2023-04-06T01:31:16;1.40;99.90
32095;DHT22;18608;53.688;10.748;2023-04-06T01:33:42;1.30;99.90
32095;DHT22;18608;53.688;10.748;2023-04-06T01:36:07;1.30;99.90
32095;DHT22;18608;53.688;10.748;2023-04-06T01:38:33;1.40;99.90
32095;DHT22;18608;53.688;10.748;2023-04-06T01:40:59;1.40;99.90
32095;DHT22;18608;53.688;10.748;2023-04-06T01:43:25;1.40;99.90
32095;DHT22;18608;53.688;10.748;2023-04-06T01:45:50;1.30;99.90
32095;DHT22;18608;53.688;10.748;2023-04-06T01:48:16;1.10;99.90
32095;DHT22;18608;53.688;10.748;2023-04-06T01:50:42;1.00;99.90
32095;DHT22;18608;53.688;10.748;2023-04-06T01:53:08;1.10;99.90
32095;DHT22;18608;53.688;10.748;2023-04-06T01:55:33;1.20;99.90
32095;DHT22;18608;53.688;10.748;2023-04-06T01:57:59;1.20;99.90
32095;DHT22;18608;53.688;10.748;2023-04-06T02:00:25;1.20;99.90
32095;DHT22;18608;53.688;10.748;2023-04-06T02:02:51;1.10;99.90
32095;DHT22;18608;53.688;10.748;2023-04-06T02:05:16;1.00;99.90
32095;DHT22;18608;53.688;10.748;2023-04-06T02:07:42;0.90;99.90
32095;DHT22;18608;53.688;10.748;2023-04-06T02:10:14;1.00;99.90
32095;DHT22;18608;53.688;10.748;2023-04-06T02:12:40;1.00;99.90
32095;DHT22;18608;53.688;10.748;2023-04-06T02:15:06;1.00;99.90
32095;DHT22;18608;53.688;10.748;2023-04-06T02:17:32;0.90;99.90
32095;DHT22;18608;53.688;10.748;2023-04-06T02:19:58;1.00;99.90
32095;DHT22;18608;53.688;10.748;2023-04-06T02:22:24;1.10;99.90
32095;DHT22;18608;53.688;10.748;2023-04-06T02:24:49;1.20;99.90
32095;DHT22;18608;53.688;10.748;2023-04-06T02:27:15;1.30;99.90
32095;DHT22;18608;53.688;10.748;2023-04-06T02:29:41;1.30;99.90
32095;DHT22;18608;53.688;10.748;2023-04-06T02:32:07;1.30;99.90
32095;DHT22;18608;53.688;10.748;2023-04-06T02:34:33;1.30;99.90
32095;DHT22;18608;53.688;10.748;2023-04-06T02:36:58;1.30;99.90
32095;DHT22;18608;53.688;10.748;2023-04-06T02:39:24;1.30;99.90
32095;DHT22;18608;53.688;10.748;2023-04-06T02:41:50;1.30;99.90
32095;DHT22;18608;53.688;10.748;2023-04-06T02:44:16;1.30;99.90
32095;DHT22;18608;53.688;10.748;2023-04-06T02:46:41;2.10;99.90
32095;DHT22;18608;53.688;10.748;2023-04-06T02:49:07;1.30;99.90
32095;DHT22;18608;53.688;10.748;2023-04-06T02:51:33;1.30;99.90
32095;DHT22;18608;53.688;10.748;2023-04-06T02:53:59;1.30;99.90
32095;DHT22;18608;53.688;10.748;2023-04-06T02:56:24;1.20;99.90
32095;DHT22;18608;53.688;10.748;2023-04-06T02:58:52;1.20;99.90
32095;DHT22;18608;53.688;10.748;2023-04-06T03:01:17;1.10;99.90
32095;DHT22;18608;53.688;10.748;2023-04-06T03:03:43;1.10;99.90
32095;DHT22;18608;53.688;10.748;2023-04-06T03:06:09;1.10;99.90
32095;DHT22;18608;53.688;10.748;2023-04-06T03:08:35;1.10;99.90
32095;DHT22;18608;53.688;10.748;2023-04-06T03:11:01;1.10;99.90
32095;DHT22;18608;53.688;10.748;2023-04-06T03:13:26;1.00;99.90
32095;DHT22;18608;53.688;10.748;2023-04-06T03:15:52;1.00;99.90
32095;DHT22;18608;53.688;10.748;2023-04-06T03:18:22;1.00;99.90
32095;DHT22;18608;53.688;10.748;2023-04-06T03:20:48;0.90;99.90
32095;DHT22;18608;53.688;10.748;2023-04-06T03:23:14;0.90;99.90
32095;DHT22;18608;53.688;10.748;2023-04-06T03:25:40;0.90;99.90
32095;DHT22;18608;53.688;10.748;2023-04-06T03:28:06;0.60;99.90
32095;DHT22;18608;53.688;10.748;2023-04-06T03:30:31;0.50;99.90
32095;DHT22;18608;53.688;10.748;2023-04-06T03:32:57;0.60;99.90
32095;DHT22;18608;53.688;10.748;2023-04-06T03:35:23;0.70;99.90
32095;DHT22;18608;53.688;10.748;2023-04-06T03:37:49;0.80;99.90
32095;DHT22;18608;53.688;10.748;2023-04-06T03:40:15;0.80;99.90
32095;DHT22;18608;53.688;10.748;2023-04-06T03:42:41;0.70;99.90
32095;DHT22;18608;53.688;10.748;2023-04-06T03:45:07;0.80;99.90
32095;DHT22;18608;53.688;10.748;2023-04-06T03:47:33;0.70;99.90
32095;DHT22;18608;53.688;10.748;2023-04-06T03:49:59;0.70;99.90
32095;DHT22;18608;53.688;10.748;2023-04-06T03:52:25;0.70;99.90
32095;DHT22;18608;53.688;10.748;2023-04-06T03:54:51;0.70;99.90
32095;DHT22;18608;53.688;10.748;2023-04-06T03:57:17;0.60;99.90
32095;DHT22;18608;53.688;10.748;2023-04-06T03:59:43;0.50;99.90
32095;DHT22;18608;53.688;10.748;2023-04-06T04:02:08;0.50;99.90
32095;DHT22;18608;53.688;10.748;2023-04-06T04:04:34;0.60;99.90
32095;DHT22;18608;53.688;10.748;2023-04-06T04:07:00;0.60;99.90
32095;DHT22;18608;53.688;10.748;2023-04-06T04:09:26;0.60;99.90
32095;DHT22;18608;53.688;10.748;2023-04-06T04:11:51;0.60;99.90
32095;DHT22;18608;53.688;10.748;2023-04-06T04:14:17;0.40;99.90
32095;DHT22;18608;53.688;10.748;2023-04-06T04:16:43;0.50;99.90
32095;DHT22;18608;53.688;10.748;2023-04-06T04:19:09;0.50;99.90
32095;DHT22;18608;53.688;10.748;2023-04-06T04:21:42;0.50;99.90
32095;DHT22;18608;53.688;10.748;2023-04-06T04:24:09;0.50;99.90
32095;DHT22;18608;53.688;10.748;2023-04-06T04:26:35;0.50;99.90
32095;DHT22;18608;53.688;10.748;2023-04-06T04:29:01;0.40;99.90
32095;DHT22;18608;53.688;10.748;2023-04-06T04:31:27;0.40;99.90
32095;DHT22;18608;53.688;10.748;2023-04-06T04:33:52;0.50;99.90
32095;DHT22;18608;53.688;10.748;2023-04-06T04:36:18;0.60;99.90
32095;DHT22;18608;53.688;10.748;2023-04-06T04:38:44;0.60;99.90
32095;DHT22;18608;53.688;10.748;2023-04-06T04:41:10;0.60;99.90
32095;DHT22;18608;53.688;10.748;2023-04-06T04:43:35;0.60;99.90
32095;DHT22;18608;53.688;10.748;2023-04-06T04:46:01;0.40;99.90
32095;DHT22;18608;53.688;10.748;2023-04-06T04:48:27;0.40;99.90
32095;DHT22;18608;53.688;10.748;2023-04-06T04:50:52;0.40;99.90
32095;DHT22;18608;53.688;10.748;2023-04-06T04:53:20;0.40;99.90
32095;DHT22;18608;53.688;10.748;2023-04-06T04:55:46;0.40;99.90
32095;DHT22;18608;53.688;10.748;2023-04-06T04:58:11;0.40;99.90
32095;DHT22;18608;53.688;10.748;2023-04-06T05:00:42;0.40;99.90
32095;DHT22;18608;53.688;10.748;2023-04-06T05:03:08;0.50;99.90
32095;DHT22;18608;53.688;10.748;2023-04-06T05:05:35;0.40;99.90
32095;DHT22;18608;53.688;10.748;2023-04-06T05:08:01;0.60;99.90
32095;DHT22;18608;53.688;10.748;2023-04-06T05:10:27;0.60;99.90
32095;DHT22;18608;53.688;10.748;2023-04-06T05:12:53;0.50;99.90
32095;DHT22;18608;53.688;10.748;2023-04-06T05:15:18;0.60;99.90
32095;DHT22;18608;53.688;10.748;2023-04-06T05:17:45;0.60;99.90
32095;DHT22;18608;53.688;10.748;2023-04-06T05:20:10;0.70;99.90
32095;DHT22;18608;53.688;10.748;2023-04-06T05:22:36;0.70;99.90
32095;DHT22;18608;53.688;10.748;2023-04-06T05:25:02;0.70;99.90
32095;DHT22;18608;53.688;10.748;2023-04-06T05:27:28;0.90;99.90
32095;DHT22;18608;53.688;10.748;2023-04-06T05:29:54;0.90;99.90
32095;DHT22;18608;53.688;10.748;2023-04-06T05:32:20;1.10;99.90
32095;DHT22;18608;53.688;10.748;2023-04-06T05:34:48;1.40;99.90
32095;DHT22;18608;53.688;10.748;2023-04-06T05:37:15;1.80;99.90
32095;DHT22;18608;53.688;10.748;2023-04-06T05:39:41;2.30;99.90
32095;DHT22;18608;53.688;10.748;2023-04-06T05:42:07;2.80;99.90
32095;DHT22;18608;53.688;10.748;2023-04-06T05:44:32;3.30;99.90
32095;DHT22;18608;53.688;10.748;2023-04-06T05:46:58;3.70;99.90
32095;DHT22;18608;53.688;10.748;2023-04-06T05:49:24;4.40;99.90
32095;DHT22;18608;53.688;10.748;2023-04-06T05:51:50;4.50;99.90
32095;DHT22;18608;53.688;10.748;2023-04-06T05:54:15;4.80;99.90
32095;DHT22;18608;53.688;10.748;2023-04-06T05:56:41;5.10;99.90
32095;DHT22;18608;53.688;10.748;2023-04-06T05:59:07;5.40;99.90
32095;DHT22;18608;53.688;10.748;2023-04-06T06:01:33;5.40;99.90
32095;DHT22;18608;53.688;10.748;2023-04-06T06:04:09;5.50;99.90
32095;DHT22;18608;53.688;10.748;2023-04-06T06:06:38;5.30;99.90
32095;DHT22;18608;53.688;10.748;2023-04-06T06:09:04;5.40;99.90
32095;DHT22;18608;53.688;10.748;2023-04-06T06:11:30;5.60;99.90
32095;DHT22;18608;53.688;10.748;2023-04-06T06:13:56;5.80;99.90
32095;DHT22;18608;53.688;10.748;2023-04-06T06:16:22;6.00;99.90
32095;DHT22;18608;53.688;10.748;2023-04-06T06:18:48;6.40;99.90
32095;DHT22;18608;53.688;10.748;2023-04-06T06:21:13;6.50;99.90
32095;DHT22;18608;53.688;10.748;2023-04-06T06:23:41;7.00;99.90
32095;DHT22;18608;53.688;10.748;2023-04-06T06:26:07;7.10;99.90
32095;DHT22;18608;53.688;10.748;2023-04-06T06:28:33;7.20;99.90
32095;DHT22;18608;53.688;10.748;2023-04-06T06:30:58;7.10;99.90
32095;DHT22;18608;53.688;10.748;2023-04-06T06:33:24;6.50;99.90
32095;DHT22;18608;53.688;10.748;2023-04-06T06:35:51;6.60;99.90
32095;DHT22;18608;53.688;10.748;2023-04-06T06:38:18;6.70;99.90
32095;DHT22;18608;53.688;10.748;2023-04-06T06:40:45;6.40;99.90
32095;DHT22;18608;53.688;10.748;2023-04-06T06:43:11;6.30;99.90
32095;DHT22;18608;53.688;10.748;2023-04-06T06:45:37;6.30;99.90
32095;DHT22;18608;53.688;10.748;2023-04-06T06:48:03;6.50;99.90
32095;DHT22;18608;53.688;10.748;2023-04-06T06:50:28;6.50;99.90
32095;DHT22;18608;53.688;10.748;2023-04-06T06:52:54;6.60;99.90
32095;DHT22;18608;53.688;10.748;2023-04-06T06:55:21;6.70;99.90
32095;DHT22;18608;53.688;10.748;2023-04-06T06:57:46;6.40;99.90
32095;DHT22;18608;53.688;10.748;2023-04-06T07:00:14;6.60;99.90
32095;DHT22;18608;53.688;10.748;2023-04-06T07:02:40;6.60;99.90
32095;DHT22;18608;53.688;10.748;2023-04-06T07:05:06;6.80;99.90
32095;DHT22;18608;53.688;10.748;2023-04-06T07:07:32;6.80;99.90
32095;DHT22;18608;53.688;10.748;2023-04-06T07:09:59;7.10;99.90
32095;DHT22;18608;53.688;10.748;2023-04-06T07:12:25;7.20;99.90
32095;DHT22;18608;53.688;10.748;2023-04-06T07:14:51;7.50;99.90
32095;DHT22;18608;53.688;10.748;2023-04-06T07:17:17;7.20;99.90
32095;DHT22;18608;53.688;10.748;2023-04-06T07:19:43;7.30;99.90
32095;DHT22;18608;53.688;10.748;2023-04-06T07:22:08;7.50;99.90
32095;DHT22;18608;53.688;10.748;2023-04-06T07:24:34;7.10;99.90
32095;DHT22;18608;53.688;10.748;2023-04-06T07:27:00;7.20;99.90
32095;DHT22;18608;53.688;10.748;2023-04-06T07:29:26;7.80;99.90
32095;DHT22;18608;53.688;10.748;2023-04-06T07:31:53;7.80;99.90
32095;DHT22;18608;53.688;10.748;2023-04-06T07:34:18;8.10;99.90
32095;DHT22;18608;53.688;10.748;2023-04-06T07:36:44;8.10;99.90
32095;DHT22;18608;53.688;10.748;2023-04-06T07:39:10;9.20;99.90
32095;DHT22;18608;53.688;10.748;2023-04-06T07:41:37;8.30;99.90
32095;DHT22;18608;53.688;10.748;2023-04-06T07:44:03;8.50;99.90
32095;DHT22;18608;53.688;10.748;2023-04-06T07:46:29;8.50;99.90
32095;DHT22;18608;53.688;10.748;2023-04-06T07:48:57;8.50;99.90
32095;DHT22;18608;53.688;10.748;2023-04-06T07:51:23;8.60;99.90
32095;DHT22;18608;53.688;10.748;2023-04-06T07:53:50;9.20;99.90
32095;DHT22;18608;53.688;10.748;2023-04-06T07:56:16;9.30;99.90
32095;DHT22;18608;53.688;10.748;2023-04-06T07:58:42;9.60;99.90
32095;DHT22;18608;53.688;10.748;2023-04-06T08:03:35;9.40;99.90
32095;DHT22;18608;53.688;10.748;2023-04-06T08:06:01;9.40;99.90
32095;DHT22;18608;53.688;10.748;2023-04-06T08:08:28;9.50;99.90
32095;DHT22;18608;53.688;10.748;2023-04-06T08:13:20;9.70;99.90
32095;DHT22;18608;53.688;10.748;2023-04-06T08:18:12;10.10;99.90
32095;DHT22;18608;53.688;10.748;2023-04-06T08:20:39;9.80;99.90
32095;DHT22;18608;53.688;10.748;2023-04-06T08:25:34;10.60;99.90
32095;DHT22;18608;53.688;10.748;2023-04-06T08:40:12;10.70;99.90
32095;DHT22;18608;53.688;10.748;2023-04-06T08:42:44;10.90;99.90
32095;DHT22;18608;53.688;10.748;2023-04-06T08:45:16;11.00;99.90
32095;DHT22;18608;53.688;10.748;2023-04-06T08:50:10;11.40;99.90
32095;DHT22;18608;53.688;10.748;2023-04-06T08:52:40;11.30;99.90
32095;DHT22;18608;53.688;10.748;2023-04-06T08:57:33;11.20;99.90
32095;DHT22;18608;53.688;10.748;2023-04-06T09:02:27;11.00;99.90
32095;DHT22;18608;53.688;10.748;2023-04-06T09:04:54;11.50;99.90
32095;DHT22;18608;53.688;10.748;2023-04-06T09:07:21;11.50;99.90
32095;DHT22;18608;53.688;10.748;2023-04-06T09:12:27;11.50;99.90
32095;DHT22;18608;53.688;10.748;2023-04-06T09:14:53;12.00;99.90
32095;DHT22;18608;53.688;10.748;2023-04-06T09:17:24;12.60;99.90
32095;DHT22;18608;53.688;10.748;2023-04-06T09:22:16;11.70;99.90
32095;DHT22;18608;53.688;10.748;2023-04-06T09:24:47;11.20;99.90
32095;DHT22;18608;53.688;10.748;2023-04-06T09:27:14;11.20;99.90
32095;DHT22;18608;53.688;10.748;2023-04-06T09:29:45;11.30;99.90
32095;DHT22;18608;53.688;10.748;2023-04-06T09:32:11;11.30;99.90
32095;DHT22;18608;53.688;10.748;2023-04-06T09:34:38;11.20;99.90
32095;DHT22;18608;53.688;10.748;2023-04-06T09:37:17;11.30;99.90
32095;DHT22;18608;53.688;10.748;2023-04-06T09:39:44;11.40;99.90
32095;DHT22;18608;53.688;10.748;2023-04-06T09:42:25;11.30;99.90
32095;DHT22;18608;53.688;10.748;2023-04-06T09:47:18;11.70;99.90
32095;DHT22;18608;53.688;10.748;2023-04-06T09:49:45;10.70;99.90
32095;DHT22;18608;53.688;10.748;2023-04-06T09:52:14;11.40;99.90
32095;DHT22;18608;53.688;10.748;2023-04-06T09:54:42;11.50;99.90
32095;DHT22;18608;53.688;10.748;2023-04-06T10:00:09;11.70;99.90
32095;DHT22;18608;53.688;10.748;2023-04-06T10:05:26;11.50;99.90
32095;DHT22;18608;53.688;10.748;2023-04-06T10:07:58;11.80;99.90
32095;DHT22;18608;53.688;10.748;2023-04-06T10:15:18;12.00;99.90
32095;DHT22;18608;53.688;10.748;2023-04-06T10:17:44;12.60;99.90
32095;DHT22;18608;53.688;10.748;2023-04-06T10:20:36;12.20;99.90
32095;DHT22;18608;53.688;10.748;2023-04-06T10:23:06;11.60;99.90
32095;DHT22;18608;53.688;10.748;2023-04-06T10:28:11;11.60;99.90
32095;DHT22;18608;53.688;10.748;2023-04-06T10:30:42;11.60;99.90
32095;DHT22;18608;53.688;10.748;2023-04-06T10:38:06;11.50;99.90
32095;DHT22;18608;53.688;10.748;2023-04-06T10:40:36;11.50;99.90
32095;DHT22;18608;53.688;10.748;2023-04-06T10:45:40;11.50;99.90
32095;DHT22;18608;53.688;10.748;2023-04-06T10:48:17;11.80;99.90
32095;DHT22;18608;53.688;10.748;2023-04-06T10:50:51;11.70;99.90
32095;DHT22;18608;53.688;10.748;2023-04-06T10:53:27;12.10;99.90
32095;DHT22;18608;53.688;10.748;2023-04-06T10:55:56;12.60;99.90
32095;DHT22;18608;53.688;10.748;2023-04-06T10:58:25;12.40;99.90
32095;DHT22;18608;53.688;10.748;2023-04-06T11:03:18;12.40;99.90
32095;DHT22;18608;53.688;10.748;2023-04-06T11:05:45;12.20;99.90
32095;DHT22;18608;53.688;10.748;2023-04-06T11:08:30;12.30;99.90
32095;DHT22;18608;53.688;10.748;2023-04-06T11:11:06;12.30;99.90
32095;DHT22;18608;53.688;10.748;2023-04-06T11:13:46;12.10;99.90
32095;DHT22;18608;53.688;10.748;2023-04-06T11:16:14;12.20;99.90
32095;DHT22;18608;53.688;10.748;2023-04-06T11:19:02;12.40;99.90
32095;DHT22;18608;53.688;10.748;2023-04-06T11:24:23;12.70;99.90
32095;DHT22;18608;53.688;10.748;2023-04-06T11:26:53;12.40;99.90
32095;DHT22;18608;53.688;10.748;2023-04-06T11:29:24;12.40;99.90
32095;DHT22;18608;53.688;10.748;2023-04-06T11:34:24;12.80;99.90
32095;DHT22;18608;53.688;10.748;2023-04-06T11:36:58;12.80;99.90
32095;DHT22;18608;53.688;10.748;2023-04-06T11:39:26;12.80;99.90
32095;DHT22;18608;53.688;10.748;2023-04-06T11:41:54;12.80;99.90
32095;DHT22;18608;53.688;10.748;2023-04-06T11:44:32;12.80;99.90
32095;DHT22;18608;53.688;10.748;2023-04-06T11:49:28;12.60;99.90
32095;DHT22;18608;53.688;10.748;2023-04-06T11:54:34;12.80;99.90
32095;DHT22;18608;53.688;10.748;2023-04-06T11:57:02;12.50;99.90
32095;DHT22;18608;53.688;10.748;2023-04-06T12:16:36;12.80;99.90
32095;DHT22;18608;53.688;10.748;2023-04-06T12:19:02;12.50;99.90
32095;DHT22;18608;53.688;10.748;2023-04-06T12:31:15;12.70;99.90
32095;DHT22;18608;53.688;10.748;2023-04-06T12:36:18;13.00;99.90
32095;DHT22;18608;53.688;10.748;2023-04-06T12:38:46;12.70;99.90
32095;DHT22;18608;53.688;10.748;2023-04-06T12:43:41;12.60;99.90
32095;DHT22;18608;53.688;10.748;2023-04-06T12:46:08;12.50;99.90
32095;DHT22;18608;53.688;10.748;2023-04-06T12:51:03;12.80;99.90
32095;DHT22;18608;53.688;10.748;2023-04-06T12:58:22;12.80;99.90
32095;DHT22;18608;53.688;10.748;2023-04-06T13:03:17;12.80;99.90
32095;DHT22;18608;53.688;10.748;2023-04-06T13:05:47;12.90;99.90
32095;DHT22;18608;53.688;10.748;2023-04-06T13:08:14;12.80;99.90
32095;DHT22;18608;53.688;10.748;2023-04-06T13:10:50;12.70;99.90
32095;DHT22;18608;53.688;10.748;2023-04-06T13:18:09;12.70;99.90
32095;DHT22;18608;53.688;10.748;2023-04-06T13:20:35;12.60;99.90
32095;DHT22;18608;53.688;10.748;2023-04-06T13:37:38;12.70;99.90
32095;DHT22;18608;53.688;10.748;2023-04-06T13:40:05;12.90;99.90
32095;DHT22;18608;53.688;10.748;2023-04-06T13:44:58;12.90;99.90
32095;DHT22;18608;53.688;10.748;2023-04-06T13:49:51;12.50;99.90
32095;DHT22;18608;53.688;10.748;2023-04-06T13:59:38;12.30;99.90
32095;DHT22;18608;53.688;10.748;2023-04-06T14:02:06;12.50;99.90
32095;DHT22;18608;53.688;10.748;2023-04-06T14:04:32;12.80;99.90
32095;DHT22;18608;53.688;10.748;2023-04-06T14:06:59;12.90;99.90
32095;DHT22;18608;53.688;10.748;2023-04-06T14:09:25;12.70;99.90
32095;DHT22;18608;53.688;10.748;2023-04-06T14:11:52;12.90;99.90
32095;DHT22;18608;53.688;10.748;2023-04-06T14:14:18;12.40;99.90
32095;DHT22;18608;53.688;10.748;2023-04-06T14:19:11;12.70;99.90
32095;DHT22;18608;53.688;10.748;2023-04-06T14:21:40;12.30;99.90
32095;DHT22;18608;53.688;10.748;2023-04-06T14:24:07;12.30;99.90
32095;DHT22;18608;53.688;10.748;2023-04-06T14:26:37;13.70;99.90
32095;DHT22;18608;53.688;10.748;2023-04-06T14:41:19;12.60;99.90
32095;DHT22;18608;53.688;10.748;2023-04-06T14:43:48;12.50;99.90
32095;DHT22;18608;53.688;10.748;2023-04-06T14:48:41;12.10;99.90
32095;DHT22;18608;53.688;10.748;2023-04-06T14:55:59;12.00;99.90
32095;DHT22;18608;53.688;10.748;2023-04-06T15:01:01;12.30;99.90
32095;DHT22;18608;53.688;10.748;2023-04-06T15:03:28;12.10;99.90
32095;DHT22;18608;53.688;10.748;2023-04-06T15:05:57;12.10;99.90
32095;DHT22;18608;53.688;10.748;2023-04-06T15:08:23;12.10;99.90
32095;DHT22;18608;53.688;10.748;2023-04-06T15:10:50;12.30;99.90
32095;DHT22;18608;53.688;10.748;2023-04-06T15:18:09;12.30;99.90
32095;DHT22;18608;53.688;10.748;2023-04-06T15:23:02;11.90;99.90
32095;DHT22;18608;53.688;10.748;2023-04-06T15:25:29;11.80;99.90
32095;DHT22;18608;53.688;10.748;2023-04-06T15:32:55;11.90;99.90
32095;DHT22;18608;53.688;10.748;2023-04-06T15:45:11;11.80;99.90
32095;DHT22;18608;53.688;10.748;2023-04-06T15:47:41;11.70;99.90
32095;DHT22;18608;53.688;10.748;2023-04-06T15:50:07;11.80;99.90
32095;DHT22;18608;53.688;10.748;2023-04-06T15:52:34;11.80;99.90
32095;DHT22;18608;53.688;10.748;2023-04-06T15:59:52;11.80;99.90
32095;DHT22;18608;53.688;10.748;2023-04-06T16:04:48;11.70;99.90
32095;DHT22;18608;53.688;10.748;2023-04-06T16:09:40;11.80;99.90
32095;DHT22;18608;53.688;10.748;2023-04-06T16:12:07;11.80;99.90
32095;DHT22;18608;53.688;10.748;2023-04-06T16:17:00;11.70;99.90
32095;DHT22;18608;53.688;10.748;2023-04-06T16:19:26;11.80;99.90
32095;DHT22;18608;53.688;10.748;2023-04-06T16:34:03;11.50;99.90
32095;DHT22;18608;53.688;10.748;2023-04-06T16:36:30;11.30;99.90
32095;DHT22;18608;53.688;10.748;2023-04-06T16:38:59;11.30;99.90
32095;DHT22;18608;53.688;10.748;2023-04-06T16:43:52;11.30;99.90
32095;DHT22;18608;53.688;10.748;2023-04-06T16:46:19;11.30;99.90
32095;DHT22;18608;53.688;10.748;2023-04-06T16:48:45;11.30;99.90
32095;DHT22;18608;53.688;10.748;2023-04-06T16:51:11;11.30;99.90
32095;DHT22;18608;53.688;10.748;2023-04-06T16:53:37;11.20;99.90
32095;DHT22;18608;53.688;10.748;2023-04-06T16:56:06;11.20;99.90
32095;DHT22;18608;53.688;10.748;2023-04-06T16:58:34;11.10;99.90
32095;DHT22;18608;53.688;10.748;2023-04-06T17:00:59;11.10;99.90
32095;DHT22;18608;53.688;10.748;2023-04-06T17:03:26;11.10;99.90
32095;DHT22;18608;53.688;10.748;2023-04-06T17:05:52;11.00;99.90
32095;DHT22;18608;53.688;10.748;2023-04-06T17:08:18;10.90;99.90
32095;DHT22;18608;53.688;10.748;2023-04-06T17:10:43;10.80;99.90
32095;DHT22;18608;53.688;10.748;2023-04-06T17:13:09;10.80;99.90
32095;DHT22;18608;53.688;10.748;2023-04-06T17:15:35;10.70;99.90
32095;DHT22;18608;53.688;10.748;2023-04-06T17:18:01;10.60;99.90
32095;DHT22;18608;53.688;10.748;2023-04-06T17:20:27;10.70;99.90
32095;DHT22;18608;53.688;10.748;2023-04-06T17:22:52;10.60;99.90
32095;DHT22;18608;53.688;10.748;2023-04-06T17:25:18;10.50;99.90
32095;DHT22;18608;53.688;10.748;2023-04-06T17:27:44;10.50;99.90
32095;DHT22;18608;53.688;10.748;2023-04-06T17:30:10;10.40;99.90
32095;DHT22;18608;53.688;10.748;2023-04-06T17:32:36;10.40;99.90
32095;DHT22;18608;53.688;10.748;2023-04-06T17:35:02;10.40;99.90
32095;DHT22;18608;53.688;10.748;2023-04-06T17:37:27;10.30;99.90
32095;DHT22;18608;53.688;10.748;2023-04-06T17:39:54;10.20;99.90
32095;DHT22;18608;53.688;10.748;2023-04-06T17:42:20;10.10;99.90
32095;DHT22;18608;53.688;10.748;2023-04-06T17:44:45;10.20;99.90
32095;DHT22;18608;53.688;10.748;2023-04-06T17:47:15;10.10;99.90
32095;DHT22;18608;53.688;10.748;2023-04-06T17:49:41;9.90;99.90
32095;DHT22;18608;53.688;10.748;2023-04-06T17:52:07;9.80;99.90
32095;DHT22;18608;53.688;10.748;2023-04-06T17:54:35;9.70;99.90
32095;DHT22;18608;53.688;10.748;2023-04-06T17:57:02;9.70;99.90
32095;DHT22;18608;53.688;10.748;2023-04-06T17:59:28;9.50;99.90
32095;DHT22;18608;53.688;10.748;2023-04-06T18:01:54;9.40;99.90
32095;DHT22;18608;53.688;10.748;2023-04-06T18:04:20;9.40;99.90
32095;DHT22;18608;53.688;10.748;2023-04-06T18:06:46;9.30;99.90
32095;DHT22;18608;53.688;10.748;2023-04-06T18:09:11;9.30;99.90
32095;DHT22;18608;53.688;10.748;2023-04-06T18:11:37;9.20;99.90
32095;DHT22;18608;53.688;10.748;2023-04-06T18:14:06;9.10;99.90
32095;DHT22;18608;53.688;10.748;2023-04-06T18:16:37;9.00;99.90
32095;DHT22;18608;53.688;10.748;2023-04-06T18:19:03;8.90;99.90
32095;DHT22;18608;53.688;10.748;2023-04-06T18:21:29;8.80;99.90
32095;DHT22;18608;53.688;10.748;2023-04-06T18:23:57;8.80;99.90
32095;DHT22;18608;53.688;10.748;2023-04-06T18:26:23;8.80;99.90
32095;DHT22;18608;53.688;10.748;2023-04-06T18:28:50;8.80;99.90
32095;DHT22;18608;53.688;10.748;2023-04-06T18:31:16;8.80;99.90
32095;DHT22;18608;53.688;10.748;2023-04-06T18:33:42;8.70;99.90
32095;DHT22;18608;53.688;10.748;2023-04-06T18:36:08;8.50;99.90
32095;DHT22;18608;53.688;10.748;2023-04-06T18:38:38;8.40;99.90
32095;DHT22;18608;53.688;10.748;2023-04-06T18:41:04;8.50;99.90
32095;DHT22;18608;53.688;10.748;2023-04-06T18:43:30;8.50;99.90
32095;DHT22;18608;53.688;10.748;2023-04-06T18:45:55;8.50;99.90
32095;DHT22;18608;53.688;10.748;2023-04-06T18:48:21;8.40;99.90
32095;DHT22;18608;53.688;10.748;2023-04-06T18:50:57;8.30;99.90
32095;DHT22;18608;53.688;10.748;2023-04-06T18:53:27;8.20;99.90
32095;DHT22;18608;53.688;10.748;2023-04-06T18:55:55;8.20;99.90
32095;DHT22;18608;53.688;10.748;2023-04-06T18:58:21;8.10;99.90
32095;DHT22;18608;53.688;10.748;2023-04-06T19:00:47;8.20;99.90